Time;durP1;ratioP1;P1;durP2;ratioP2;P2;SDS_P1;SDS_P2;PMS_P1;PMS_P2;Temp;Humidity;BMP_temperature;BMP_pressure;BME280_temperature;BME280_humidity;BME280_pressure;Samples;Min_cycle;Max_cycle;Signal;HPM_P1;HPM_P2
2024/01/29 00:02:24;;;;;;;15.52;5.47;;;;;;;1.18;100.00;101411.22;5102617;28;20043;-64
2024/01/29 00:04:50;;;;;;;9.88;5.20;;;;;;;1.10;100.00;101403.56;5102628;28;20056;-64
2024/01/29 00:07:16;;;;;;;9.85;4.43;;;;;;;1.08;100.00;101399.47;5102573;28;20109;-64
2024/01/29 00:09:42;;;;;;;9.70;4.00;;;;;;;1.03;100.00;101389.38;5102804;28;20048;-64
2024/01/29 00:12:08;;;;;;;7.20;3.47;;;;;;;1.17;100.00;101397.97;5102354;28;20473;-65
2024/01/29 00:14:34;;;;;;;6.93;3.40;;;;;;;1.11;100.00;101390.88;5102647;28;20052;-64
2024/01/29 00:17:00;;;;;;;7.28;3.70;;;;;;;1.24;100.00;101387.00;5102334;28;20084;-64
2024/01/29 00:19:27;;;;;;;4.70;3.25;;;;;;;1.30;100.00;101380.59;5102666;28;20142;-64
2024/01/29 00:21:52;;;;;;;5.68;3.50;;;;;;;1.22;100.00;101365.63;5102138;28;20079;-64
2024/01/29 00:24:18;;;;;;;7.38;3.67;;;;;;;1.24;100.00;101363.50;5102440;28;20102;-64
2024/01/29 00:26:44;;;;;;;9.60;3.88;;;;;;;1.20;100.00;101358.81;5098959;28;20071;-64
2024/01/29 00:29:10;;;;;;;8.70;4.32;;;;;;;1.20;100.00;101373.19;5099022;28;20064;-64
2024/01/29 00:31:36;;;;;;;13.80;5.05;;;;;;;1.10;100.00;101387.34;5098953;28;20145;-64
2024/01/29 00:34:02;;;;;;;8.77;3.10;;;;;;;1.04;100.00;101409.94;5098789;28;20143;-63
2024/01/29 00:36:29;;;;;;;4.20;2.53;;;;;;;1.16;100.00;101409.84;5098960;28;20059;-64
2024/01/29 00:38:55;;;;;;;7.65;3.47;;;;;;;1.11;100.00;101398.97;5098598;28;20452;-64
2024/01/29 00:41:20;;;;;;;4.25;2.58;;;;;;;1.13;100.00;101386.84;5099022;28;20079;-64
2024/01/29 00:43:46;;;;;;;5.30;2.58;;;;;;;1.11;100.00;101375.47;5098640;28;20151;-65
2024/01/29 00:46:13;;;;;;;3.78;2.63;;;;;;;1.14;100.00;101366.88;5099053;28;20070;-64
2024/01/29 00:48:39;;;;;;;5.53;2.55;;;;;;;1.26;100.00;101369.44;5098593;28;20332;-65
2024/01/29 00:51:05;;;;;;;5.40;2.97;;;;;;;1.17;100.00;101349.34;5098830;28;20155;-64
2024/01/29 00:53:31;;;;;;;3.90;2.75;;;;;;;1.20;100.00;101335.34;5098295;28;20048;-64
2024/01/29 00:55:58;;;;;;;5.22;3.15;;;;;;;1.15;100.00;101327.16;5098365;28;20069;-64
2024/01/29 00:58:24;;;;;;;6.30;3.83;;;;;;;1.05;100.00;101327.03;5098652;28;20138;-64
2024/01/29 01:00:50;;;;;;;4.72;3.35;;;;;;;0.84;100.00;101358.31;5098526;28;20051;-63
2024/01/29 01:03:16;;;;;;;6.43;3.10;;;;;;;0.90;100.00;101376.22;5098406;28;20314;-64
2024/01/29 01:05:42;;;;;;;4.15;2.75;;;;;;;0.54;100.00;101397.25;5098428;28;20105;-64
2024/01/29 01:08:08;;;;;;;5.22;3.00;;;;;;;0.85;100.00;101435.56;5098620;28;20049;-64
2024/01/29 01:10:34;;;;;;;4.13;3.35;;;;;;;0.82;100.00;101433.34;5098112;28;20105;-64
2024/01/29 01:13:00;;;;;;;6.55;3.20;;;;;;;0.99;100.00;101426.06;5098367;28;20143;-64
2024/01/29 01:15:26;;;;;;;5.88;3.33;;;;;;;1.08;100.00;101408.38;5098125;28;20054;-64
2024/01/29 01:17:52;;;;;;;6.45;3.30;;;;;;;1.21;100.00;101382.91;5098567;28;20044;-64
2024/01/29 01:20:18;;;;;;;4.40;3.15;;;;;;;1.01;100.00;101339.38;5097899;28;20063;-64
2024/01/29 01:22:44;;;;;;;4.85;2.88;;;;;;;1.27;100.00;101344.09;5098426;28;20052;-64
2024/01/29 01:25:11;;;;;;;5.32;3.13;;;;;;;1.07;100.00;101311.38;5098239;28;20147;-64
2024/01/29 01:27:37;;;;;;;5.35;3.72;;;;;;;1.10;100.00;101321.66;5098102;28;20055;-63
2024/01/29 01:30:06;;;;;;;5.30;3.20;;;;;;;1.14;100.00;101312.84;5097945;28;20427;-64
2024/01/29 01:32:32;;;;;;;7.38;4.10;;;;;;;1.03;100.00;101299.44;5097966;28;20135;-64
2024/01/29 01:34:58;;;;;;;12.07;4.82;;;;;;;0.84;100.00;101342.94;5098086;28;20108;-64
2024/01/29 01:37:24;;;;;;;16.67;6.25;;;;;;;0.14;100.00;101373.03;5097424;28;20044;-64
2024/01/29 01:39:52;;;;;;;19.08;7.10;;;;;;;0.03;100.00;101441.31;5098140;28;20055;-64
2024/01/29 01:42:18;;;;;;;17.00;7.05;;;;;;;-0.03;100.00;101478.97;5097660;28;20445;-64
2024/01/29 01:44:46;;;;;;;10.98;5.32;;;;;;;-0.33;100.00;101481.84;5098097;28;20083;-64
2024/01/29 01:47:12;;;;;;;17.50;6.82;;;;;;;-0.21;100.00;101486.38;5097583;28;20052;-64
2024/01/29 01:49:38;;;;;;;13.20;6.25;;;;;;;0.26;100.00;101491.69;5098022;28;20079;-65
2024/01/29 01:52:04;;;;;;;17.33;6.75;;;;;;;0.66;100.00;101488.94;5097965;28;20320;-65
2024/01/29 01:54:30;;;;;;;23.15;7.57;;;;;;;0.47;100.00;101502.66;5097642;28;20156;-64
2024/01/29 01:56:57;;;;;;;21.67;7.65;;;;;;;0.70;100.00;101500.91;5097795;28;20162;-64
2024/01/29 01:59:24;;;;;;;16.88;7.95;;;;;;;0.32;100.00;101496.13;5097537;28;20253;-64
2024/01/29 02:01:52;;;;;;;22.52;9.38;;;;;;;0.27;100.00;101506.78;5097729;28;20052;-64
2024/01/29 02:04:17;;;;;;;31.65;11.05;;;;;;;0.33;100.00;101512.06;5097432;28;20055;-64
2024/01/29 02:06:44;;;;;;;28.98;10.88;;;;;;;0.53;100.00;101516.22;5097728;28;20048;-64
2024/01/29 02:09:11;;;;;;;25.77;10.35;;;;;;;0.17;100.00;101510.94;5097337;28;20102;-64
2024/01/29 02:11:36;;;;;;;28.40;10.30;;;;;;;0.55;100.00;101514.13;5097386;28;20090;-65
2024/01/29 02:14:02;;;;;;;23.17;9.68;;;;;;;0.77;100.00;101501.59;5097137;28;20412;-64
2024/01/29 02:16:28;;;;;;;19.70;8.65;;;;;;;0.87;100.00;101492.84;5097622;28;20055;-64
2024/01/29 02:18:55;;;;;;;18.92;8.50;;;;;;;0.81;100.00;101478.44;5096988;28;20131;-64
2024/01/29 02:21:21;;;;;;;14.23;6.85;;;;;;;0.77;100.00;101484.53;5097199;28;20048;-64
2024/01/29 02:23:48;;;;;;;15.60;7.65;;;;;;;0.84;100.00;101472.53;5097321;28;20052;-64
2024/01/29 02:26:14;;;;;;;13.65;7.88;;;;;;;0.43;100.00;101458.31;5096989;28;20080;-64
2024/01/29 02:28:39;;;;;;;8.55;5.10;;;;;;;0.46;100.00;101478.56;5097340;28;20051;-64
2024/01/29 02:31:05;;;;;;;9.85;5.45;;;;;;;0.44;100.00;101495.03;5096893;28;20495;-64
2024/01/29 02:33:31;;;;;;;7.55;4.75;;;;;;;0.43;100.00;101515.00;5097152;28;20059;-64
2024/01/29 02:35:57;;;;;;;9.27;5.72;;;;;;;0.55;100.00;101504.13;5096812;28;20306;-64
2024/01/29 02:38:23;;;;;;;9.30;5.05;;;;;;;0.43;100.00;101504.19;5097204;28;20048;-64
2024/01/29 02:40:50;;;;;;;9.13;4.55;;;;;;;0.40;100.00;101506.53;5096817;28;20439;-64
2024/01/29 02:43:16;;;;;;;16.92;4.78;;;;;;;0.47;100.00;101526.13;5097190;28;20056;-64
2024/01/29 02:45:42;;;;;;;6.03;3.33;;;;;;;0.62;100.00;101530.97;5096725;28;20073;-64
2024/01/29 02:48:08;;;;;;;10.43;4.18;;;;;;;0.53;100.00;101514.34;5097175;28;20099;-64
2024/01/29 02:50:34;;;;;;;9.75;4.63;;;;;;;0.51;100.00;101512.97;5095596;28;20048;-64
2024/01/29 02:52:59;;;;;;;7.65;4.22;;;;;;;0.46;100.00;101503.69;5096745;28;20106;-64
2024/01/29 02:55:25;;;;;;;7.70;4.85;;;;;;;0.54;100.00;101531.38;5096831;28;20048;-64
2024/01/29 02:57:52;;;;;;;6.75;3.60;;;;;;;0.14;100.00;101516.00;5096792;28;20134;-64
2024/01/29 03:00:19;;;;;;;24.27;4.05;;;;;;;0.37;100.00;101532.13;5096794;28;20055;-64
2024/01/29 03:02:44;;;;;;;13.45;4.18;;;;;;;0.31;100.00;101540.34;5096702;28;20048;-65
2024/01/29 03:05:10;;;;;;;8.30;4.18;;;;;;;0.39;100.00;101543.47;5096784;28;20208;-64
2024/01/29 03:07:36;;;;;;;9.20;4.40;;;;;;;0.41;100.00;101546.78;5096463;28;20108;-64
2024/01/29 03:10:03;;;;;;;9.68;4.20;;;;;;;0.30;100.00;101544.94;5096774;28;20043;-64
2024/01/29 03:12:29;;;;;;;14.40;5.35;;;;;;;0.29;100.00;101553.25;5096350;28;20059;-64
2024/01/29 03:14:55;;;;;;;11.45;4.32;;;;;;;0.33;100.00;101560.63;5096657;28;20056;-64
2024/01/29 03:17:21;;;;;;;8.60;4.68;;;;;;;0.37;100.00;101559.13;5096246;28;20058;-63
2024/01/29 03:19:47;;;;;;;17.50;5.45;;;;;;;0.42;100.00;101559.19;5096602;28;20381;-64
2024/01/29 03:22:13;;;;;;;8.43;4.93;;;;;;;0.13;100.00;101554.78;5096505;28;20086;-64
2024/01/29 03:24:39;;;;;;;10.25;4.63;;;;;;;0.32;100.00;101560.88;5096430;28;20138;-65
2024/01/29 03:27:05;;;;;;;9.23;4.38;;;;;;;0.41;100.00;101562.16;5096513;28;20547;-63
2024/01/29 03:29:31;;;;;;;18.20;5.72;;;;;;;0.38;100.00;101555.34;5096226;28;20096;-64
2024/01/29 03:31:57;;;;;;;10.65;5.50;;;;;;;0.45;100.00;101561.44;5096431;28;20101;-64
2024/01/29 03:34:23;;;;;;;12.80;4.88;;;;;;;0.46;100.00;101556.84;5096063;28;20062;-65
2024/01/29 03:36:49;;;;;;;6.78;4.43;;;;;;;0.47;100.00;101562.03;5096510;28;20071;-64
2024/01/29 03:39:15;;;;;;;11.70;4.25;;;;;;;0.45;100.00;101560.63;5095940;28;20083;-64
2024/01/29 03:41:41;;;;;;;9.27;4.35;;;;;;;0.31;100.00;101557.38;5096488;28;20063;-64
2024/01/29 03:44:07;;;;;;;8.68;4.60;;;;;;;0.31;100.00;101559.25;5095966;28;20087;-64
2024/01/29 03:46:33;;;;;;;9.82;4.55;;;;;;;0.41;100.00;101571.06;5096399;28;20164;-64
2024/01/29 03:48:59;;;;;;;10.43;3.60;;;;;;;0.61;100.00;101570.66;5095811;28;20071;-64
2024/01/29 03:51:25;;;;;;;11.82;4.43;;;;;;;0.58;100.00;101562.22;5096042;28;20052;-64
2024/01/29 03:53:51;;;;;;;7.53;4.25;;;;;;;0.34;100.00;101556.06;5095822;28;20143;-63
2024/01/29 03:56:17;;;;;;;10.07;4.75;;;;;;;0.65;100.00;101573.69;5095951;28;20063;-64
2024/01/29 03:58:43;;;;;;;8.13;4.28;;;;;;;0.60;100.00;101573.59;5096153;28;20048;-64
2024/01/29 04:01:09;;;;;;;10.60;4.88;;;;;;;0.57;100.00;101568.69;5097426;28;20475;-64
2024/01/29 04:03:35;;;;;;;10.57;5.55;;;;;;;0.51;100.00;101566.94;5099594;28;20087;-64
2024/01/29 04:06:02;;;;;;;9.52;4.65;;;;;;;0.42;100.00;101559.19;5099289;28;20105;-65
2024/01/29 04:08:28;;;;;;;8.75;4.80;;;;;;;0.42;100.00;101558.38;5099511;28;20047;-64
2024/01/29 04:10:54;;;;;;;8.25;4.38;;;;;;;0.31;100.00;101554.66;5099032;28;20425;-64
2024/01/29 04:13:20;;;;;;;8.52;5.20;;;;;;;0.49;100.00;101564.47;5099464;28;20056;-64
2024/01/29 04:15:45;;;;;;;8.02;4.82;;;;;;;0.49;100.00;101558.25;5098996;28;20147;-64
2024/01/29 04:18:11;;;;;;;8.23;5.28;;;;;;;0.65;100.00;101549.41;5099516;28;20075;-64
2024/01/29 04:20:38;;;;;;;9.23;4.57;;;;;;;0.51;100.00;101543.47;5099139;28;20080;-65
2024/01/29 04:23:04;;;;;;;7.55;4.22;;;;;;;0.61;100.00;101542.84;5099080;28;20143;-64
2024/01/29 04:25:30;;;;;;;9.82;5.55;;;;;;;0.41;100.00;101535.97;5099169;28;20332;-64
2024/01/29 04:27:56;;;;;;;10.43;5.88;;;;;;;0.45;100.00;101537.13;5099038;28;20052;-64
2024/01/29 04:30:22;;;;;;;11.88;5.45;;;;;;;0.40;100.00;101544.31;5099174;28;20058;-65
2024/01/29 04:32:48;;;;;;;7.03;4.88;;;;;;;0.57;100.00;101541.69;5098744;28;20394;-64
2024/01/29 04:35:14;;;;;;;8.73;5.22;;;;;;;0.40;100.00;101537.06;5098935;28;20062;-64
2024/01/29 04:37:41;;;;;;;11.43;6.05;;;;;;;0.57;100.00;101542.50;5098798;28;20138;-64
2024/01/29 04:40:09;;;;;;;10.10;5.80;;;;;;;0.47;100.00;101521.53;5099104;28;20134;-64
2024/01/29 04:42:35;;;;;;;10.00;5.18;;;;;;;0.49;100.00;101529.38;5098567;28;20080;-65
2024/01/29 04:45:00;;;;;;;8.27;5.05;;;;;;;0.59;100.00;101536.84;5098921;28;20372;-64
2024/01/29 04:47:27;;;;;;;12.30;6.18;;;;;;;0.51;100.00;101540.78;5098387;28;20139;-64
2024/01/29 04:49:53;;;;;;;12.23;6.65;;;;;;;0.56;100.00;101537.34;5098586;28;20070;-64
2024/01/29 04:52:19;;;;;;;10.00;5.65;;;;;;;0.62;100.00;101539.91;5098937;28;20397;-64
2024/01/29 04:54:45;;;;;;;10.05;6.03;;;;;;;-0.04;100.00;101525.03;5098462;28;20090;-65
2024/01/29 04:57:12;;;;;;;14.88;6.40;;;;;;;0.40;100.00;101569.44;5098588;28;20043;-64
2024/01/29 04:59:37;;;;;;;7.40;5.03;;;;;;;0.40;100.00;101569.44;5098294;28;20058;-64
2024/01/29 05:02:04;;;;;;;13.35;6.15;;;;;;;0.11;100.00;101571.22;5098463;28;20052;-64
2024/01/29 05:04:30;;;;;;;13.80;6.32;;;;;;;0.49;100.00;101586.06;5098252;28;20120;-64
2024/01/29 05:06:55;;;;;;;11.65;6.88;;;;;;;0.02;100.00;101577.22;5098513;28;20138;-64
2024/01/29 05:09:21;;;;;;;11.05;6.70;;;;;;;-0.06;100.00;101587.31;5097999;28;20437;-64
2024/01/29 05:11:47;;;;;;;10.23;5.70;;;;;;;-0.01;100.00;101589.28;5097881;28;20128;-64
2024/01/29 05:14:14;;;;;;;14.13;6.18;;;;;;;-0.32;100.00;101575.09;5097543;28;20048;-64
2024/01/29 05:16:40;;;;;;;8.48;5.32;;;;;;;-0.52;100.00;101575.44;5098189;28;20205;-61
2024/01/29 05:19:06;;;;;;;9.48;5.75;;;;;;;-0.17;100.00;101581.91;5097538;28;20079;-62
2024/01/29 05:21:31;;;;;;;7.55;5.28;;;;;;;0.04;100.00;101585.91;5097821;28;20147;-68
2024/01/29 05:23:57;;;;;;;10.50;5.70;;;;;;;-0.15;100.00;101590.59;5097784;28;20139;-67
2024/01/29 05:26:23;;;;;;;10.70;4.80;;;;;;;-0.11;100.00;101583.66;5097722;28;20139;-70
2024/01/29 05:28:49;;;;;;;11.93;5.22;;;;;;;0.08;100.00;101590.59;5098118;28;20052;-63
2024/01/29 05:31:16;;;;;;;8.75;5.38;;;;;;;0.24;100.00;101583.66;5097778;28;20417;-61
2024/01/29 05:33:42;;;;;;;7.93;3.97;;;;;;;-0.14;100.00;101581.44;5097873;28;20139;-65
2024/01/29 05:36:08;;;;;;;8.20;4.82;;;;;;;0.10;100.00;101585.78;5097309;28;20052;-66
2024/01/29 05:38:35;;;;;;;9.43;5.47;;;;;;;0.22;100.00;101588.47;5097854;28;20139;-65
2024/01/29 05:41:01;;;;;;;8.30;5.22;;;;;;;0.46;100.00;101584.66;5097624;28;20052;-66
2024/01/29 05:43:27;;;;;;;15.07;7.07;;;;;;;0.59;100.00;101569.25;5098044;28;20416;-66
2024/01/29 05:45:53;;;;;;;13.60;7.57;;;;;;;0.44;100.00;101537.38;5097545;28;20044;-67
2024/01/29 05:48:19;;;;;;;18.17;8.30;;;;;;;-0.17;100.00;101528.78;5097985;28;20097;-66
2024/01/29 05:50:45;;;;;;;81.53;10.93;;;;;;;0.53;100.00;101551.31;5097345;28;20417;-66
2024/01/29 05:53:11;;;;;;;30.25;13.88;;;;;;;0.38;100.00;101541.03;5097740;28;20151;-67
2024/01/29 05:55:37;;;;;;;33.45;16.98;;;;;;;0.27;100.00;101541.88;5097678;28;20094;-66
2024/01/29 05:58:03;;;;;;;31.52;15.30;;;;;;;0.31;100.00;101548.44;5097522;28;20091;-68
2024/01/29 06:00:29;;;;;;;38.05;16.15;;;;;;;0.52;100.00;101544.28;5097726;28;20139;-65
2024/01/29 06:02:55;;;;;;;35.03;15.70;;;;;;;0.13;100.00;101527.81;5097335;28;20409;-66
2024/01/29 06:05:22;;;;;;;33.60;13.95;;;;;;;0.13;100.00;101552.09;5097311;28;20413;-65
2024/01/29 06:07:48;;;;;;;34.47;14.68;;;;;;;0.29;100.00;101559.47;5097072;28;20051;-63
2024/01/29 06:10:14;;;;;;;28.98;13.98;;;;;;;0.49;100.00;101550.16;5097200;28;20062;-66
2024/01/29 06:12:40;;;;;;;25.00;11.15;;;;;;;-0.39;100.00;101533.16;5097048;28;20056;-65
2024/01/29 06:15:07;;;;;;;25.10;10.30;;;;;;;-0.60;100.00;101566.84;5096967;28;20405;-68
2024/01/29 06:17:33;;;;;;;24.95;10.57;;;;;;;-0.15;100.00;101585.19;5096891;28;20140;-67
2024/01/29 06:19:59;;;;;;;26.38;10.73;;;;;;;0.01;100.00;101586.38;5097195;28;20052;-66
2024/01/29 06:22:25;;;;;;;27.25;10.20;;;;;;;-0.20;100.00;101579.66;5097003;28;20058;-67
2024/01/29 06:24:51;;;;;;;25.05;11.75;;;;;;;-0.01;100.00;101582.00;5095745;28;20052;-66
2024/01/29 06:27:17;;;;;;;29.58;14.70;;;;;;;0.44;100.00;101596.75;5096834;28;20059;-66
2024/01/29 06:29:43;;;;;;;27.05;13.65;;;;;;;-0.46;100.00;101589.88;5097190;28;20094;-66
2024/01/29 06:32:09;;;;;;;30.88;14.07;;;;;;;-0.11;100.00;101592.56;5096782;28;20403;-66
2024/01/29 06:34:36;;;;;;;30.75;12.77;;;;;;;-0.07;100.00;101588.38;5096966;28;20334;-66
2024/01/29 06:37:02;;;;;;;16.30;8.48;;;;;;;-0.25;100.00;101593.88;5096778;28;20134;-67
2024/01/29 06:39:28;;;;;;;23.75;9.00;;;;;;;-0.19;100.00;101594.81;5097123;28;20408;-68
2024/01/29 06:41:54;;;;;;;17.27;9.02;;;;;;;0.10;100.00;101603.81;5096641;28;20059;-67
2024/01/29 06:44:20;;;;;;;23.40;9.43;;;;;;;0.50;100.00;101612.00;5097066;28;20083;-68
2024/01/29 06:46:46;;;;;;;23.27;9.20;;;;;;;0.64;100.00;101599.88;5096480;28;20113;-68
2024/01/29 06:49:24;;;;;;;25.23;10.02;;;;;;;0.55;100.00;101593.22;5096441;28;20117;-68
2024/01/29 06:51:50;;;;;;;28.02;10.15;;;;;;;0.18;100.00;101571.09;5096919;28;20294;-67
2024/01/29 06:54:16;;;;;;;32.25;14.15;;;;;;;0.37;100.00;101586.09;5096576;28;20077;-67
2024/01/29 06:56:43;;;;;;;35.20;15.30;;;;;;;0.58;100.00;101597.31;5096824;28;20090;-70
2024/01/29 06:59:10;;;;;;;35.30;17.92;;;;;;;0.20;100.00;101579.75;5096318;28;20107;-69
2024/01/29 07:01:37;;;;;;;26.73;12.68;;;;;;;0.19;100.00;101594.31;5096733;28;20154;-70
2024/01/29 07:04:04;;;;;;;18.23;8.93;;;;;;;0.56;100.00;101607.53;5096534;28;20125;-67
2024/01/29 07:06:30;;;;;;;17.02;9.65;;;;;;;0.63;100.00;101594.69;5096161;28;20342;-66
2024/01/29 07:08:56;;;;;;;15.18;7.82;;;;;;;0.87;100.00;101588.19;5096232;28;20048;-66
2024/01/29 07:11:22;;;;;;;15.15;8.48;;;;;;;1.03;100.00;101564.16;5096566;28;20055;-66
2024/01/29 07:13:49;;;;;;;15.23;8.68;;;;;;;1.06;100.00;101529.34;5095930;28;20139;-66
2024/01/29 07:16:15;;;;;;;18.80;8.82;;;;;;;1.07;100.00;101484.28;5096267;28;20094;-66
2024/01/29 07:18:41;;;;;;;12.90;7.38;;;;;;;1.12;100.00;101458.16;5096210;28;20051;-65
2024/01/29 07:21:09;;;;;;;15.43;7.38;;;;;;;0.99;100.00;101436.84;5095865;28;20325;-66
2024/01/29 07:23:35;;;;;;;16.02;7.55;;;;;;;1.17;100.00;101425.00;5096030;28;20436;-67
2024/01/29 07:26:01;;;;;;;12.38;7.20;;;;;;;1.13;100.00;101413.03;5095906;28;20047;-67
2024/01/29 07:28:27;;;;;;;15.60;7.75;;;;;;;1.11;100.00;101416.00;5096270;28;20044;-67
2024/01/29 07:30:54;;;;;;;11.18;7.22;;;;;;;1.13;100.00;101386.00;5095763;28;20067;-66
2024/01/29 07:33:20;;;;;;;12.75;6.70;;;;;;;1.11;100.00;101380.88;5096210;28;20067;-65
2024/01/29 07:35:48;;;;;;;11.27;6.32;;;;;;;1.05;100.00;101406.16;5096974;28;20048;-66
2024/01/29 07:38:14;;;;;;;13.93;6.65;;;;;;;1.04;100.00;101415.34;5099708;28;20052;-66
2024/01/29 07:40:41;;;;;;;20.08;6.85;;;;;;;0.82;100.00;101434.16;5099123;28;20051;-66
2024/01/29 07:43:06;;;;;;;14.35;6.82;;;;;;;1.09;100.00;101458.63;5099767;28;20086;-66
2024/01/29 07:45:33;;;;;;;15.63;7.20;;;;;;;0.94;100.00;101431.38;5099227;28;20091;-66
2024/01/29 07:48:00;;;;;;;23.35;10.48;;;;;;;1.31;100.00;101450.63;5099266;28;20136;-67
2024/01/29 07:50:26;;;;;;;22.48;11.10;;;;;;;1.47;100.00;101419.22;5099285;28;20320;-65
2024/01/29 07:52:52;;;;;;;36.22;16.02;;;;;;;1.32;100.00;101410.88;5099190;28;20044;-66
2024/01/29 07:55:18;;;;;;;42.30;18.23;;;;;;;1.51;100.00;101373.59;5099254;28;20151;-66
2024/01/29 07:57:44;;;;;;;42.75;19.80;;;;;;;1.48;100.00;101352.47;5098958;28;20124;-66
2024/01/29 08:00:11;;;;;;;49.42;23.40;;;;;;;1.29;100.00;101328.44;5099000;28;20125;-66
2024/01/29 08:02:37;;;;;;;41.35;19.92;;;;;;;1.21;100.00;101347.78;5098806;28;20044;-66
2024/01/29 08:05:04;;;;;;;47.30;20.52;;;;;;;1.37;100.00;101348.81;5099191;28;20082;-66
2024/01/29 08:07:30;;;;;;;42.95;19.13;;;;;;;1.66;100.00;101362.94;5098367;28;20052;-65
2024/01/29 08:09:58;;;;;;;45.45;18.23;;;;;;;1.79;100.00;101332.81;5099321;28;20075;-66
2024/01/29 08:12:24;;;;;;;42.05;21.13;;;;;;;1.74;100.00;101294.91;5098875;28;20052;-66
2024/01/29 08:14:50;;;;;;;51.58;22.33;;;;;;;1.92;100.00;101274.81;5098642;28;20380;-66
2024/01/29 08:17:16;;;;;;;56.67;24.98;;;;;;;2.02;100.00;101231.63;5098702;28;20143;-65
2024/01/29 08:19:42;;;;;;;56.47;26.52;;;;;;;2.01;100.00;101191.31;5098479;28;20416;-67
2024/01/29 08:22:09;;;;;;;48.85;24.85;;;;;;;2.04;100.00;101191.63;5098710;28;20067;-67
2024/01/29 08:24:35;;;;;;;67.72;32.58;;;;;;;2.21;100.00;101152.78;5098834;28;20428;-67
2024/01/29 08:27:01;;;;;;;56.85;27.90;;;;;;;2.19;100.00;101109.72;5098643;28;20083;-66
2024/01/29 08:29:27;;;;;;;55.67;24.15;;;;;;;2.24;100.00;101080.00;5098500;28;20059;-64
2024/01/29 08:31:54;;;;;;;41.75;20.67;;;;;;;2.05;100.00;101027.38;5098877;28;20071;-66
2024/01/29 08:34:20;;;;;;;30.58;14.90;;;;;;;2.05;100.00;101057.16;5098409;28;20310;-69
2024/01/29 08:36:46;;;;;;;21.35;10.95;;;;;;;2.03;100.00;101091.75;5098973;28;20344;-65
2024/01/29 08:39:13;;;;;;;31.92;12.20;;;;;;;2.24;100.00;101082.69;5098289;28;20109;-67
2024/01/29 08:41:40;;;;;;;26.25;10.88;;;;;;;2.05;100.00;101051.75;5098314;28;20163;-68
2024/01/29 08:44:06;;;;;;;24.20;11.05;;;;;;;2.08;100.00;101038.50;5098310;28;20124;-65
2024/01/29 08:46:32;;;;;;;25.48;10.43;;;;;;;2.04;100.00;101069.06;5097962;28;20064;-66
2024/01/29 08:48:58;;;;;;;21.63;10.32;;;;;;;2.10;100.00;101097.78;5097890;28;20075;-63
2024/01/29 08:51:25;;;;;;;22.70;10.10;;;;;;;2.00;100.00;101114.75;5097941;28;20413;-63
2024/01/29 08:53:51;;;;;;;16.25;8.57;;;;;;;2.12;100.00;101168.66;5098242;28;20048;-64
2024/01/29 08:56:18;;;;;;;18.17;8.65;;;;;;;2.24;100.00;101125.19;5097917;28;20073;-64
2024/01/29 08:58:44;;;;;;;15.98;7.90;;;;;;;2.36;100.00;101101.44;5098356;28;20070;-62
2024/01/29 09:01:10;;;;;;;15.05;7.63;;;;;;;2.32;100.00;101057.84;5097916;28;20421;-64
2024/01/29 09:03:36;;;;;;;14.60;7.28;;;;;;;2.40;100.00;101047.56;5098411;28;20052;-64
2024/01/29 09:06:03;;;;;;;13.02;6.43;;;;;;;2.38;100.00;101009.16;5098011;28;20063;-63
2024/01/29 09:08:30;;;;;;;16.05;8.02;;;;;;;2.61;100.00;101016.81;5098520;28;20048;-63
2024/01/29 09:10:56;;;;;;;15.30;7.68;;;;;;;2.72;100.00;100987.84;5097601;28;20083;-63
2024/01/29 09:13:23;;;;;;;14.32;6.80;;;;;;;2.81;100.00;100934.78;5097699;28;20048;-64
2024/01/29 09:15:49;;;;;;;11.52;6.57;;;;;;;2.87;100.00;100870.59;5097739;28;20044;-65
2024/01/29 09:18:15;;;;;;;10.77;5.82;;;;;;;2.68;100.00;100845.94;5098096;28;20044;-66
2024/01/29 09:20:42;;;;;;;14.30;7.18;;;;;;;2.76;100.00;100837.25;5097671;28;20105;-66
2024/01/29 09:23:08;;;;;;;14.20;6.57;;;;;;;2.63;100.00;100837.81;5098073;28;20101;-67
2024/01/29 09:25:34;;;;;;;14.98;6.45;;;;;;;2.58;100.00;100879.25;5098207;28;20055;-65
2024/01/29 09:28:01;;;;;;;9.63;5.70;;;;;;;2.57;100.00;100864.91;5097549;28;20048;-66
2024/01/29 09:30:27;;;;;;;11.52;6.18;;;;;;;2.63;100.00;100879.22;5098094;28;20094;-63
2024/01/29 09:32:54;;;;;;;14.90;7.93;;;;;;;2.31;100.00;100864.06;5097559;28;20059;-65
2024/01/29 09:35:20;;;;;;;14.65;7.78;;;;;;;2.39;100.00;100949.31;5098061;28;20079;-66
2024/01/29 09:37:46;;;;;;;19.65;8.95;;;;;;;2.24;100.00;100941.97;5097438;28;20367;-67
2024/01/29 09:40:12;;;;;;;19.02;9.88;;;;;;;2.68;100.00;100994.88;5097510;28;20059;-65
2024/01/29 09:42:40;;;;;;;24.30;10.95;;;;;;;2.55;100.00;100936.63;5097069;28;20139;-67
2024/01/29 09:45:10;;;;;;;19.90;9.82;;;;;;;2.68;100.00;100911.75;5096939;28;20374;-68
2024/01/29 09:47:38;;;;;;;17.50;9.05;;;;;;;2.46;100.00;100954.47;5097126;28;20052;-65
2024/01/29 09:50:07;;;;;;;19.35;9.57;;;;;;;2.34;100.00;100963.66;5097096;28;20112;-66
2024/01/29 09:52:37;;;;;;;20.17;8.50;;;;;;;2.28;100.00;101029.69;5097368;28;20328;-66
2024/01/29 09:55:05;;;;;;;21.00;10.02;;;;;;;2.66;100.00;101035.75;5096736;28;20094;-64
2024/01/29 09:57:31;;;;;;;17.75;9.10;;;;;;;2.86;100.00;100925.84;5097541;28;20301;-64
2024/01/29 09:59:58;;;;;;;20.90;9.98;;;;;;;2.93;100.00;100820.72;5096885;28;20048;-66
2024/01/29 10:02:25;;;;;;;17.95;9.10;;;;;;;2.30;100.00;100778.53;5097495;28;20044;-66
2024/01/29 10:04:52;;;;;;;21.75;9.30;;;;;;;2.81;100.00;100859.75;5096837;28;20415;-67
2024/01/29 10:07:18;;;;;;;26.02;11.55;;;;;;;2.92;100.00;100760.31;5096269;28;20063;-64
2024/01/29 10:09:45;;;;;;;19.00;10.25;;;;;;;2.80;100.00;100738.97;5096323;28;20109;-64
2024/01/29 10:12:20;;;;;;;24.45;10.23;;;;;;;3.00;100.00;100739.97;5096679;28;20052;-65
2024/01/29 10:14:46;;;;;;;20.00;10.52;;;;;;;3.02;100.00;100697.16;5096855;28;20063;-65
2024/01/29 10:17:13;;;;;;;19.65;9.93;;;;;;;2.92;100.00;100691.78;5096648;28;20044;-64
2024/01/29 10:19:39;;;;;;;19.67;9.50;;;;;;;2.69;100.00;100696.72;5096652;28;20060;-66
2024/01/29 10:22:12;;;;;;;17.08;8.68;;;;;;;2.48;100.00;100798.84;5096689;28;20062;-65
2024/01/29 10:24:38;;;;;;;17.08;9.15;;;;;;;2.30;100.00;100905.75;5096723;28;20052;-69
2024/01/29 10:27:06;;;;;;;17.33;9.15;;;;;;;2.22;100.00;100932.50;5096610;28;20047;-65
2024/01/29 10:29:32;;;;;;;14.80;9.20;;;;;;;2.28;100.00;101008.03;5096441;28;20083;-69
2024/01/29 10:31:59;;;;;;;17.50;9.25;;;;;;;2.30;100.00;101000.47;5096429;28;20443;-66
2024/01/29 10:34:25;;;;;;;17.73;9.40;;;;;;;2.38;100.00;101033.50;5096582;28;20064;-66
2024/01/29 10:36:53;;;;;;;17.75;9.85;;;;;;;2.37;100.00;100962.31;5096616;28;20055;-66
2024/01/29 10:39:22;;;;;;;17.08;9.20;;;;;;;2.59;100.00;101041.44;5096584;28;20056;-69
2024/01/29 10:41:52;;;;;;;18.55;9.52;;;;;;;2.70;100.00;100942.09;5096750;28;20135;-68
2024/01/29 10:44:20;;;;;;;17.20;9.02;;;;;;;2.74;100.00;100842.16;5096590;28;20056;-65
2024/01/29 10:46:47;;;;;;;16.10;8.25;;;;;;;3.14;100.00;100781.69;5096271;28;20048;-66
2024/01/29 10:49:15;;;;;;;15.85;8.45;;;;;;;2.96;100.00;100669.28;5096754;28;20063;-67
2024/01/29 10:51:43;;;;;;;13.60;7.78;;;;;;;3.16;100.00;100638.56;5096703;28;20059;-66
2024/01/29 10:54:11;;;;;;;12.63;6.82;;;;;;;2.52;100.00;100606.88;5096846;28;20047;-67
2024/01/29 10:56:38;;;;;;;16.95;7.50;;;;;;;2.59;100.00;100631.78;5096181;28;20386;-68
2024/01/29 10:59:05;;;;;;;15.10;8.30;;;;;;;3.22;100.00;100699.78;5095945;28;20047;-66
2024/01/29 11:01:32;;;;;;;23.48;8.65;;;;;;;3.11;100.00;100570.88;5096082;28;20060;-67
2024/01/29 11:03:59;;;;;;;14.00;8.23;;;;;;;3.40;100.00;100513.19;5096370;28;20052;-67
2024/01/29 11:06:31;;;;;;;21.00;9.93;;;;;;;3.48;100.00;100413.06;5096377;28;20403;-66
2024/01/29 11:09:02;;;;;;;27.92;11.05;;;;;;;3.07;100.00;100377.44;5096156;28;20115;-67
2024/01/29 11:11:29;;;;;;;28.98;14.20;;;;;;;3.40;100.00;100434.56;5095904;28;20059;-67
2024/01/29 11:13:56;;;;;;;33.13;17.95;;;;;;;3.31;100.00;100396.44;5096248;28;20117;-69